Bayard, New Mexico
Current Conditions -  °F | °C
As of 12:15 AM on Sunday 23 Nov 2014 (Local Time) from KSVC Reporting Station
Clear Clear  
Wind Chill: 37°   Ceiling: Unl
Heat Index: 45°   Visibility: 10mi
Dew Point: 14°   Wind: 18mph
Humidity: 29%   Direction: 300°WNW
Pressure: 29.97"   Gusts: 24mph
Location:  32.76°N, 108.13°W
Report Text: KSVC 230715Z AUTO 30016G21KT 10SM CLR 07/M10 A2997 RMK AO2
Loading
Personal Weather Stations






























Interactive Weather Map New forecast layout! Learn more

10-Day Weather Forecast

Advertisements
Track Severe Weather on mobile